Latest Conditions
At L.F.Wade Int. Airport
Recorded at 10:55 am
Mostly Cloudy
Temp.: 
21°C/69°F
Humidity: 
74%
Wind: 
ENE 9KT
or 10mph
UV Index: 
5
Island Observations
 
Observations
Thursday, April 18, 2019

Observations are in local time and taken at least once an hour, or upon the start and end of specified events such as showers and thunderstorms.

Time Sky / Weather Wind Speed/Gusts Temp. R.H. Pressure
     knots (mph)  °C (°F)  %  mb / "Hg
 10:55 Mostly Cloudy  ENE 9/0 (10/0) 21(69) 74 1024 / 30.25
 09:55 Partly Cloudy Showers NNE 9/0 (10/0) 21(69) 71 1024 / 30.24
 08:55 Mostly Cloudy Showers NNW 6/0 (7/0) 20(67) 72 1024 / 30.23
 07:55 Partly Cloudy  N 5/0 (6/0) 19(67) 70 1023 / 30.22
 06:55 Few Clouds  NNW 4/0 (5/0) 18(65) 75 1022 / 30.19
 05:55 Mostly Cloudy  N 4/0 (5/0) 18(65) 73 1022 / 30.17
 04:55 Mostly Cloudy  NNW 5/0 (6/0) 18(65) 73 1021 / 30.16
 03:55 Partly Cloudy  NW 4/0 (5/0) 18(65) 73 1021 / 30.15
 02:55 Mostly Cloudy  NNW 4/0 (5/0) 18(65) 72 1022 / 30.17
 01:55 Partly Cloudy  NNW 4/0 (5/0) 18(65) 71 1022 / 30.19
 00:55 Partly Cloudy  NNW 3/0 (3/0) 18(65) 72 1022 / 30.19
 23:55 Partly Cloudy  NNW 4/0 (5/0) 18(65) 70 1022 / 30.19
 22:55 Partly Cloudy  NNW 4/0 (5/0) 18(65) 69 1022 / 30.18
 21:55 Partly Cloudy  N 5/0 (6/0) 19(65) 67 1022 / 30.18
 20:55 Partly Cloudy  NNW 6/0 (7/0) 18(65) 66 1021 / 30.16
 19:55 Partly Cloudy  NNW 8/0 (9/0) 19(66) 66 1021 / 30.15
 18:55 Few Clouds  NNW 8/0 (9/0) 20(67) 61 1020 / 30.13
 17:55 Few Clouds  NNW 7/0 (8/0) 20(68) 58 1020 / 30.13
 16:55 Few Clouds  NW 7/0 (8/0) 20(68) 56 1020 / 30.13
 15:55 Few Clouds  NW 7/0 (8/0) 21(69) 58 1020 / 30.13
 14:55 Few Clouds  NNW 9/0 (10/0) 20(69) 58 1021 / 30.15
 13:55 Few Clouds  NNW 7/0 (8/0) 21(69) 57 1021 / 30.15
 12:55 Partly Cloudy  NNW 8/0 (9/0) 20(69) 55 1021 / 30.16
 11:55 Mostly Cloudy  N 9/0 (10/0) 20(68) 56 1021 / 30.16
 10:55 Mostly Cloudy  N 11/0 (13/0) 20(68) 60 1021 / 30.16
 09:55 Partly Cloudy  NNW 9/0 (10/0) 20(67) 57 1021 / 30.15
 08:55 Mostly Cloudy  NW 7/0 (8/0) 19(66) 61 1021 / 30.14
 07:55 Mostly Cloudy  NNW 6/0 (7/0) 18(64) 61 1020 / 30.13
 06:55 Mostly Cloudy  NNW 7/0 (8/0) 18(64) 64 1020 / 30.12
 05:55 Mostly Cloudy  NNW 9/0 (10/0) 18(64) 62 1019 / 30.10
 04:55 Mostly Cloudy  NW 8/0 (9/0) 18(64) 62 1019 / 30.09
 03:55 Mostly Cloudy  NW 7/0 (8/0) 18(64) 60 1019 / 30.10
 02:55 Mostly Cloudy  NNW 6/0 (7/0) 18(65) 62 1020 / 30.11
 01:55 Mostly Cloudy  N 5/0 (6/0) 19(65) 61 1020 / 30.12
 00:55 Partly Cloudy  NNW 4/0 (5/0) 18(65) 62 1020 / 30.13
 23:55 Partly Cloudy  NW 8/0 (9/0) 18(65) 61 1020 / 30.12
 22:55 Mostly Cloudy  NNW 8/0 (9/0) 19(66) 62 1020 / 30.12
 21:55 Mostly Cloudy  WNW 4/0 (5/0) 18(65) 62 1020 / 30.12
 20:55 Mostly Cloudy  NNW 9/0 (10/0) 19(66) 60 1020 / 30.11
 19:55 Partly Cloudy  NW 8/0 (9/0) 19(66) 62 1019 / 30.09
 18:55 Partly Cloudy  NW 10/0 (12/0) 20(67) 62 1019 / 30.09
 17:55 Few Clouds  NW 13/0 (15/0) 20(68) 61 1019 / 30.09
 16:55 Few Clouds  NW 14/0 (16/0) 21(69) 62 1018 / 30.07
 15:55 Few Clouds  NW 13/0 (15/0) 21(70) 66 1018 / 30.07
 14:55 Few Clouds  NW 16/0 (18/0) 21(70) 65 1018 / 30.07
 13:55 Few Clouds  NNW 13/0 (15/0) 22(71) 67 1018 / 30.07
 12:55 Partly Cloudy  NNW 13/0 (15/0) 22(71) 73 1018 / 30.07
 11:55 Partly Cloudy  NNW 13/0 (15/0) 22(71) 74 1018 / 30.06
 11:41 Mostly Cloudy  NW 15/0 (17/0) 22(71) 74 1018 / 30.06
 10:55 Few Clouds  WNW 12/0 (14/0) 23(73) 77 1017 / 30.04
 09:55 Partly Cloudy  WNW 12/0 (14/0) 21(71) 82 1017 / 30.03
 08:55 Partly Cloudy  WNW 11/0 (13/0) 21(70) 85 1016 / 30.01
 08:45 Mostly Cloudy  WNW 11/0 (13/0) 21(70) 86 1016 / 30.01
 08:04 Mostly Cloudy  W 10/0 (12/0) 20(68) 94 1016 / 30.00
 07:55 Mostly Cloudy Showers W 10/0 (12/0) 20(67) 94 1016 / 30.00
 07:40 Mostly Cloudy Showers W 14/0 (16/0) 19(67) 97 1016 / 29.99
 07:22 Overcast Showers W 16/0 (18/0) 19(67) 98 1016 / 29.99
 07:16 Overcast Showers W 16/0 (18/0) 19(66) 98 1016 / 29.99
 07:01 Overcast Showers W 17/0 (20/0) 19(66) 97 1015 / 29.97
 06:55 Overcast Showers W 21/31 (24/36) 19(66) 97 1015 / 29.96
 06:48 Overcast Showers W 22/0 (25/0) 19(67) 96 1015 / 29.97
 06:45 Overcast Showers SW 19/31 (22/36) 20(68) 94 1015 / 29.97
 06:41 Overcast Showers SW 19/0 (22/0) 22(71) 86 1014 / 29.95
 06:31 Mostly Cloudy Showers SW 17/0 (20/0) 23(73) 90 1014 / 29.94
 05:55 Mostly Cloudy  SW 14/0 (16/0) 22(71) 93 1014 / 29.94
 05:18 Mostly Cloudy  SSW 14/0 (16/0) 22(71) 92 1014 / 29.94
 04:55 Mostly Cloudy  SSW 14/0 (16/0) 22(71) 92 1014 / 29.94
 03:55 Mostly Cloudy  SW 17/0 (20/0) 22(71) 85 1015 / 29.96
 02:55 Mostly Cloudy  SSW 17/0 (20/0) 22(71) 89 1015 / 29.97
 01:55 Mostly Cloudy  SSW 15/0 (17/0) 22(72) 91 1016 / 29.99
 00:55 Mostly Cloudy  SSW 15/0 (17/0) 22(71) 91 1016 / 30.01
 23:55 Mostly Cloudy  S 15/0 (17/0) 22(71) 90 1017 / 30.02
 22:55 Mostly Cloudy  S 16/0 (18/0) 22(71) 91 1017 / 30.04
 21:55 Mostly Cloudy  S 14/0 (16/0) 22(71) 89 1018 / 30.05
 21:44 Mostly Cloudy  S 14/0 (16/0) 22(71) 89 1018 / 30.06
 20:55 Mostly Cloudy  S 14/0 (16/0) 22(71) 89 1017 / 30.04
 19:55 Mostly Cloudy  S 13/0 (15/0) 22(71) 88 1017 / 30.04
 18:55 Mostly Cloudy  S 13/0 (15/0) 22(72) 85 1017 / 30.04
 17:55 Mostly Cloudy  SSW 14/0 (16/0) 23(74) 80 1018 / 30.05
 16:55 Partly Cloudy  S 14/0 (16/0) 23(74) 81 1017 / 30.04
 15:55 Mostly Cloudy  SSW 17/0 (20/0) 23(74) 83 1018 / 30.06
 14:55 Mostly Cloudy  S 13/0 (15/0) 24(74) 80 1018 / 30.07
 13:55 Mostly Cloudy  S 15/0 (17/0) 23(74) 81 1019 / 30.08
 12:55 Partly Cloudy  S 16/0 (18/0) 23(73) 80 1019 / 30.09
 11:55 Partly Cloudy  S 14/0 (16/0) 23(73) 80 1020 / 30.11
 10:55 Partly Cloudy  S 14/0 (16/0) 22(72) 80 1020 / 30.13
 09:55 Partly Cloudy  S 12/0 (14/0) 22(72) 81 1020 / 30.13
 08:55 Partly Cloudy  S 11/0 (13/0) 22(71) 83 1021 / 30.14
 07:55 Partly Cloudy  S 11/0 (13/0) 21(70) 84 1021 / 30.14
 06:55 Partly Cloudy  S 10/0 (12/0) 20(69) 86 1020 / 30.12
 05:55 Partly Cloudy  S 8/0 (9/0) 20(69) 85 1020 / 30.13
 04:55 Partly Cloudy  S 8/0 (9/0) 20(69) 84 1021 / 30.14
 03:55 Partly Cloudy  S 9/0 (10/0) 20(69) 83 1021 / 30.15
 02:55 Few Clouds  S 8/0 (9/0) 21(69) 82 1022 / 30.17
 01:55 Few Clouds  SSE 10/0 (12/0) 21(69) 81 1022 / 30.19
 00:55 Partly Cloudy  SSE 9/0 (10/0) 21(70) 84 1023 / 30.22
 23:55 Mostly Cloudy  SSE 9/0 (10/0) 21(70) 84 1024 / 30.23
 22:55 Mostly Cloudy  SSE 8/0 (9/0) 21(70) 84 1024 / 30.24
 21:55 Mostly Cloudy  S 9/0 (10/0) 21(70) 82 1024 / 30.24
 20:55 Mostly Cloudy  S 9/0 (10/0) 21(70) 83 1024 / 30.23
Island AWOS